sensor_id;sensor_type;location;lat;lon;timestamp;temperature;humidity
17715;DHT22;8977;50.902;4.314;2023-10-19T09:08:52;17.20;99.90
17715;DHT22;8977;50.902;4.314;2023-10-19T09:11:19;17.20;99.90
17715;DHT22;8977;50.902;4.314;2023-10-19T09:13:48;17.20;99.90
17715;DHT22;8977;50.902;4.314;2023-10-19T09:16:16;17.20;99.90
17715;DHT22;8977;50.902;4.314;2023-10-19T09:18:44;17.20;99.90
17715;DHT22;8977;50.902;4.314;2023-10-19T09:21:14;17.20;99.90
17715;DHT22;8977;50.902;4.314;2023-10-19T09:23:49;17.30;99.90
17715;DHT22;8977;50.902;4.314;2023-10-19T09:26:18;17.30;99.90
17715;DHT22;8977;50.902;4.314;2023-10-19T09:28:46;17.30;99.90
17715;DHT22;8977;50.902;4.314;2023-10-19T09:31:14;17.30;99.90
17715;DHT22;8977;50.902;4.314;2023-10-19T09:33:43;17.30;99.90
17715;DHT22;8977;50.902;4.314;2023-10-19T09:36:11;17.30;99.90
17715;DHT22;8977;50.902;4.314;2023-10-19T09:38:39;17.30;99.90
17715;DHT22;8977;50.902;4.314;2023-10-19T09:41:08;17.40;99.90
17715;DHT22;8977;50.902;4.314;2023-10-19T09:43:42;17.40;99.90
17715;DHT22;8977;50.902;4.314;2023-10-19T09:46:11;17.40;99.90
17715;DHT22;8977;50.902;4.314;2023-10-19T09:48:40;17.40;99.90
17715;DHT22;8977;50.902;4.314;2023-10-19T09:51:09;17.40;99.90
17715;DHT22;8977;50.902;4.314;2023-10-19T09:53:37;17.40;99.90
17715;DHT22;8977;50.902;4.314;2023-10-19T09:56:06;17.40;99.90
17715;DHT22;8977;50.902;4.314;2023-10-19T09:58:36;17.40;99.90
17715;DHT22;8977;50.902;4.314;2023-10-19T10:01:07;17.40;99.90
17715;DHT22;8977;50.902;4.314;2023-10-19T10:03:47;17.50;99.90
17715;DHT22;8977;50.902;4.314;2023-10-19T10:06:17;17.50;99.90
17715;DHT22;8977;50.902;4.314;2023-10-19T10:08:53;17.50;99.90
17715;DHT22;8977;50.902;4.314;2023-10-19T10:11:22;17.50;99.90
17715;DHT22;8977;50.902;4.314;2023-10-19T10:13:53;17.50;99.90
17715;DHT22;8977;50.902;4.314;2023-10-19T10:16:24;17.60;99.90
17715;DHT22;8977;50.902;4.314;2023-10-19T10:18:55;17.60;99.90
17715;DHT22;8977;50.902;4.314;2023-10-19T10:21:26;17.70;99.90
17715;DHT22;8977;50.902;4.314;2023-10-19T10:23:54;17.70;99.90
17715;DHT22;8977;50.902;4.314;2023-10-19T10:26:23;17.70;99.90
17715;DHT22;8977;50.902;4.314;2023-10-19T10:29:09;17.70;99.90
17715;DHT22;8977;50.902;4.314;2023-10-19T10:31:43;17.70;99.90
17715;DHT22;8977;50.902;4.314;2023-10-19T10:34:10;17.70;99.90
17715;DHT22;8977;50.902;4.314;2023-10-19T10:36:57;17.70;99.90
17715;DHT22;8977;50.902;4.314;2023-10-19T10:39:25;17.70;99.90
17715;DHT22;8977;50.902;4.314;2023-10-19T10:41:56;17.70;99.90
17715;DHT22;8977;50.902;4.314;2023-10-19T10:44:35;17.70;99.90
17715;DHT22;8977;50.902;4.314;2023-10-19T10:47:05;17.80;99.90
17715;DHT22;8977;50.902;4.314;2023-10-19T10:49:35;17.70;99.90
17715;DHT22;8977;50.902;4.314;2023-10-19T10:52:12;17.80;99.90
17715;DHT22;8977;50.902;4.314;2023-10-19T10:54:39;17.80;99.90
17715;DHT22;8977;50.902;4.314;2023-10-19T10:57:06;17.80;99.90
17715;DHT22;8977;50.902;4.314;2023-10-19T10:59:33;17.80;99.90
17715;DHT22;8977;50.902;4.314;2023-10-19T11:02:00;17.80;99.90
17715;DHT22;8977;50.902;4.314;2023-10-19T11:04:28;17.80;99.90
17715;DHT22;8977;50.902;4.314;2023-10-19T11:06:55;17.80;99.90
17715;DHT22;8977;50.902;4.314;2023-10-19T11:09:22;17.80;99.90
17715;DHT22;8977;50.902;4.314;2023-10-19T11:11:50;17.80;99.90
17715;DHT22;8977;50.902;4.314;2023-10-19T11:14:17;17.80;99.90
17715;DHT22;8977;50.902;4.314;2023-10-19T11:16:44;17.80;99.90
17715;DHT22;8977;50.902;4.314;2023-10-19T11:19:11;17.80;99.90
17715;DHT22;8977;50.902;4.314;2023-10-19T11:21:52;17.80;99.90
17715;DHT22;8977;50.902;4.314;2023-10-19T11:24:24;17.80;99.90
17715;DHT22;8977;50.902;4.314;2023-10-19T11:26:51;17.80;99.90
17715;DHT22;8977;50.902;4.314;2023-10-19T11:29:20;17.80;99.90
17715;DHT22;8977;50.902;4.314;2023-10-19T11:31:57;17.80;99.90
17715;DHT22;8977;50.902;4.314;2023-10-19T11:34:25;17.80;99.90
17715;DHT22;8977;50.902;4.314;2023-10-19T11:36:54;17.80;99.90
17715;DHT22;8977;50.902;4.314;2023-10-19T11:39:25;17.80;99.90
17715;DHT22;8977;50.902;4.314;2023-10-19T11:41:52;17.80;99.90
17715;DHT22;8977;50.902;4.314;2023-10-19T11:44:19;17.80;99.90
17715;DHT22;8977;50.902;4.314;2023-10-19T11:46:47;17.80;99.90
17715;DHT22;8977;50.902;4.314;2023-10-19T11:49:15;17.80;99.90
17715;DHT22;8977;50.902;4.314;2023-10-19T11:51:42;17.80;99.90
17715;DHT22;8977;50.902;4.314;2023-10-19T11:54:10;17.90;99.90
17715;DHT22;8977;50.902;4.314;2023-10-19T11:56:38;17.90;99.90
17715;DHT22;8977;50.902;4.314;2023-10-19T11:59:05;17.90;99.90
17715;DHT22;8977;50.902;4.314;2023-10-19T12:01:33;17.90;99.90
17715;DHT22;8977;50.902;4.314;2023-10-19T12:04:00;17.90;99.90
17715;DHT22;8977;50.902;4.314;2023-10-19T12:06:26;17.90;99.90
17715;DHT22;8977;50.902;4.314;2023-10-19T12:08:54;17.90;99.90
17715;DHT22;8977;50.902;4.314;2023-10-19T12:11:26;17.90;99.90
17715;DHT22;8977;50.902;4.314;2023-10-19T12:13:53;17.90;99.90
17715;DHT22;8977;50.902;4.314;2023-10-19T12:16:20;17.90;99.90
17715;DHT22;8977;50.902;4.314;2023-10-19T12:18:49;17.90;99.90
17715;DHT22;8977;50.902;4.314;2023-10-19T12:21:16;18.00;99.90
17715;DHT22;8977;50.902;4.314;2023-10-19T12:23:53;18.00;99.90
17715;DHT22;8977;50.902;4.314;2023-10-19T12:26:22;17.90;99.90
17715;DHT22;8977;50.902;4.314;2023-10-19T12:28:50;17.90;99.90
17715;DHT22;8977;50.902;4.314;2023-10-19T12:31:17;17.90;99.90
17715;DHT22;8977;50.902;4.314;2023-10-19T12:33:44;17.90;99.90
17715;DHT22;8977;50.902;4.314;2023-10-19T12:36:11;17.90;99.90
17715;DHT22;8977;50.902;4.314;2023-10-19T12:38:57;17.90;99.90
17715;DHT22;8977;50.902;4.314;2023-10-19T12:41:24;17.90;99.90
17715;DHT22;8977;50.902;4.314;2023-10-19T12:43:53;17.90;99.90
17715;DHT22;8977;50.902;4.314;2023-10-19T12:46:23;17.90;99.90
17715;DHT22;8977;50.902;4.314;2023-10-19T12:48:51;18.00;99.90
17715;DHT22;8977;50.902;4.314;2023-10-19T12:51:18;18.00;99.90
17715;DHT22;8977;50.902;4.314;2023-10-19T12:53:49;18.10;99.90
17715;DHT22;8977;50.902;4.314;2023-10-19T12:56:17;18.20;99.90
17715;DHT22;8977;50.902;4.314;2023-10-19T12:58:43;18.40;99.90
17715;DHT22;8977;50.902;4.314;2023-10-19T13:01:12;18.50;99.90
17715;DHT22;8977;50.902;4.314;2023-10-19T13:03:43;18.70;99.90
17715;DHT22;8977;50.902;4.314;2023-10-19T13:06:11;18.90;99.90
17715;DHT22;8977;50.902;4.314;2023-10-19T13:08:37;19.10;99.90
17715;DHT22;8977;50.902;4.314;2023-10-19T13:11:06;19.20;99.90
17715;DHT22;8977;50.902;4.314;2023-10-19T13:13:33;19.30;99.90
17715;DHT22;8977;50.902;4.314;2023-10-19T13:16:02;19.30;99.90
17715;DHT22;8977;50.902;4.314;2023-10-19T13:18:32;19.20;99.90
17715;DHT22;8977;50.902;4.314;2023-10-19T13:21:00;19.20;99.90
17715;DHT22;8977;50.902;4.314;2023-10-19T13:23:30;19.10;99.90
17715;DHT22;8977;50.902;4.314;2023-10-19T13:25:59;19.10;99.90
17715;DHT22;8977;50.902;4.314;2023-10-19T13:28:34;19.00;99.90
17715;DHT22;8977;50.902;4.314;2023-10-19T13:31:03;19.00;99.90
17715;DHT22;8977;50.902;4.314;2023-10-19T13:33:32;19.00;99.90
17715;DHT22;8977;50.902;4.314;2023-10-19T13:35:58;18.90;99.90
17715;DHT22;8977;50.902;4.314;2023-10-19T13:38:25;18.90;99.90
17715;DHT22;8977;50.902;4.314;2023-10-19T13:40:52;18.80;99.90
17715;DHT22;8977;50.902;4.314;2023-10-19T13:43:19;18.80;99.90
17715;DHT22;8977;50.902;4.314;2023-10-19T13:45:47;18.80;99.90
17715;DHT22;8977;50.902;4.314;2023-10-19T13:48:14;18.80;99.90
17715;DHT22;8977;50.902;4.314;2023-10-19T13:50:44;18.80;99.90
17715;DHT22;8977;50.902;4.314;2023-10-19T13:53:14;18.70;99.90
17715;DHT22;8977;50.902;4.314;2023-10-19T13:55:41;18.70;99.90
17715;DHT22;8977;50.902;4.314;2023-10-19T13:58:08;18.70;99.90
17715;DHT22;8977;50.902;4.314;2023-10-19T14:00:36;18.70;99.90
17715;DHT22;8977;50.902;4.314;2023-10-19T14:03:07;18.80;99.90
17715;DHT22;8977;50.902;4.314;2023-10-19T14:05:38;18.70;99.90
17715;DHT22;8977;50.902;4.314;2023-10-19T14:08:09;18.70;99.90
17715;DHT22;8977;50.902;4.314;2023-10-19T14:10:36;18.70;99.90
17715;DHT22;8977;50.902;4.314;2023-10-19T14:13:06;18.60;99.90
17715;DHT22;8977;50.902;4.314;2023-10-19T14:15:34;18.70;99.90
17715;DHT22;8977;50.902;4.314;2023-10-19T14:18:01;18.70;99.90
17715;DHT22;8977;50.902;4.314;2023-10-19T14:20:29;18.70;99.90
17715;DHT22;8977;50.902;4.314;2023-10-19T14:22:56;18.60;99.90
17715;DHT22;8977;50.902;4.314;2023-10-19T14:25:25;18.60;99.90
17715;DHT22;8977;50.902;4.314;2023-10-19T14:27:54;18.60;99.90
17715;DHT22;8977;50.902;4.314;2023-10-19T14:30:24;18.60;99.90
17715;DHT22;8977;50.902;4.314;2023-10-19T14:32:51;18.60;99.90
17715;DHT22;8977;50.902;4.314;2023-10-19T14:35:20;18.60;99.90
17715;DHT22;8977;50.902;4.314;2023-10-19T14:37:48;18.60;99.90
17715;DHT22;8977;50.902;4.314;2023-10-19T14:40:17;18.60;99.90
17715;DHT22;8977;50.902;4.314;2023-10-19T14:42:48;18.60;99.90
17715;DHT22;8977;50.902;4.314;2023-10-19T14:45:17;18.60;99.90
17715;DHT22;8977;50.902;4.314;2023-10-19T14:47:47;18.50;99.90
17715;DHT22;8977;50.902;4.314;2023-10-19T14:50:14;18.60;99.90
17715;DHT22;8977;50.902;4.314;2023-10-19T14:52:44;18.60;99.90
17715;DHT22;8977;50.902;4.314;2023-10-19T14:55:13;18.50;99.90
17715;DHT22;8977;50.902;4.314;2023-10-19T14:57:42;18.50;99.90
17715;DHT22;8977;50.902;4.314;2023-10-19T15:00:13;18.50;99.90
17715;DHT22;8977;50.902;4.314;2023-10-19T15:02:48;18.60;99.90
17715;DHT22;8977;50.902;4.314;2023-10-19T15:05:16;18.50;99.90
17715;DHT22;8977;50.902;4.314;2023-10-19T15:07:44;18.50;99.90
17715;DHT22;8977;50.902;4.314;2023-10-19T15:10:12;18.50;99.90
17715;DHT22;8977;50.902;4.314;2023-10-19T15:12:40;18.50;99.90
17715;DHT22;8977;50.902;4.314;2023-10-19T15:15:08;18.50;99.90
17715;DHT22;8977;50.902;4.314;2023-10-19T15:17:38;18.50;99.90
17715;DHT22;8977;50.902;4.314;2023-10-19T15:20:07;18.50;99.90
17715;DHT22;8977;50.902;4.314;2023-10-19T15:22:35;18.50;99.90
17715;DHT22;8977;50.902;4.314;2023-10-19T15:25:03;18.50;99.90
17715;DHT22;8977;50.902;4.314;2023-10-19T15:27:30;18.50;99.90
17715;DHT22;8977;50.902;4.314;2023-10-19T15:29:57;18.50;99.90
17715;DHT22;8977;50.902;4.314;2023-10-19T15:32:24;18.50;99.90
17715;DHT22;8977;50.902;4.314;2023-10-19T15:34:53;18.50;99.90
17715;DHT22;8977;50.902;4.314;2023-10-19T15:37:20;18.50;99.90
17715;DHT22;8977;50.902;4.314;2023-10-19T15:39:48;18.50;99.90
17715;DHT22;8977;50.902;4.314;2023-10-19T15:42:15;18.50;99.90
17715;DHT22;8977;50.902;4.314;2023-10-19T15:44:43;18.50;99.90
17715;DHT22;8977;50.902;4.314;2023-10-19T15:47:11;18.50;99.90
17715;DHT22;8977;50.902;4.314;2023-10-19T15:49:46;18.50;99.90
17715;DHT22;8977;50.902;4.314;2023-10-19T15:52:18;18.40;99.90
17715;DHT22;8977;50.902;4.314;2023-10-19T15:54:46;18.50;99.90
17715;DHT22;8977;50.902;4.314;2023-10-19T15:57:13;18.40;99.90
17715;DHT22;8977;50.902;4.314;2023-10-19T15:59:40;18.40;99.90
17715;DHT22;8977;50.902;4.314;2023-10-19T16:02:07;18.40;99.90
17715;DHT22;8977;50.902;4.314;2023-10-19T16:04:36;18.40;99.90
17715;DHT22;8977;50.902;4.314;2023-10-19T16:07:03;18.40;99.90
17715;DHT22;8977;50.902;4.314;2023-10-19T16:09:32;18.40;99.90
17715;DHT22;8977;50.902;4.314;2023-10-19T16:11:59;18.40;99.90
17715;DHT22;8977;50.902;4.314;2023-10-19T16:14:26;18.40;99.90
17715;DHT22;8977;50.902;4.314;2023-10-19T16:16:53;18.40;99.90
17715;DHT22;8977;50.902;4.314;2023-10-19T16:19:20;18.30;99.90
17715;DHT22;8977;50.902;4.314;2023-10-19T16:21:48;18.40;99.90
17715;DHT22;8977;50.902;4.314;2023-10-19T16:24:15;18.30;99.90
17715;DHT22;8977;50.902;4.314;2023-10-19T16:26:44;18.30;99.90
17715;DHT22;8977;50.902;4.314;2023-10-19T16:29:11;18.30;99.90
17715;DHT22;8977;50.902;4.314;2023-10-19T16:31:42;18.30;99.90
17715;DHT22;8977;50.902;4.314;2023-10-19T16:34:09;18.30;99.90
17715;DHT22;8977;50.902;4.314;2023-10-19T16:36:37;18.30;99.90
17715;DHT22;8977;50.902;4.314;2023-10-19T16:39:04;18.30;99.90
17715;DHT22;8977;50.902;4.314;2023-10-19T16:41:33;18.30;99.90
17715;DHT22;8977;50.902;4.314;2023-10-19T16:44:02;18.20;99.90
17715;DHT22;8977;50.902;4.314;2023-10-19T16:46:31;18.20;99.90
17715;DHT22;8977;50.902;4.314;2023-10-19T16:48:58;18.20;99.90
17715;DHT22;8977;50.902;4.314;2023-10-19T16:51:27;18.10;99.90
17715;DHT22;8977;50.902;4.314;2023-10-19T16:53:54;18.20;99.90
17715;DHT22;8977;50.902;4.314;2023-10-19T16:56:21;18.20;99.90
17715;DHT22;8977;50.902;4.314;2023-10-19T16:58:48;18.20;99.90
17715;DHT22;8977;50.902;4.314;2023-10-19T17:01:17;18.20;99.90
17715;DHT22;8977;50.902;4.314;2023-10-19T17:03:44;18.20;99.90
17715;DHT22;8977;50.902;4.314;2023-10-19T17:06:11;18.10;99.90
17715;DHT22;8977;50.902;4.314;2023-10-19T17:08:39;18.10;99.90
17715;DHT22;8977;50.902;4.314;2023-10-19T17:11:06;18.10;99.90
17715;DHT22;8977;50.902;4.314;2023-10-19T17:13:34;18.10;99.90
17715;DHT22;8977;50.902;4.314;2023-10-19T17:16:01;18.10;99.90
17715;DHT22;8977;50.902;4.314;2023-10-19T17:18:30;18.10;99.90
17715;DHT22;8977;50.902;4.314;2023-10-19T17:20:57;18.10;99.90
17715;DHT22;8977;50.902;4.314;2023-10-19T17:23:24;18.10;99.90
17715;DHT22;8977;50.902;4.314;2023-10-19T17:25:51;18.10;99.90
17715;DHT22;8977;50.902;4.314;2023-10-19T17:28:18;18.10;99.90
17715;DHT22;8977;50.902;4.314;2023-10-19T17:30:45;18.10;99.90
17715;DHT22;8977;50.902;4.314;2023-10-19T17:33:12;18.10;99.90
17715;DHT22;8977;50.902;4.314;2023-10-19T17:35:41;18.00;99.90
17715;DHT22;8977;50.902;4.314;2023-10-19T17:38:07;18.00;99.90
17715;DHT22;8977;50.902;4.314;2023-10-19T17:40:35;18.00;99.90
17715;DHT22;8977;50.902;4.314;2023-10-19T17:43:02;18.00;99.90
17715;DHT22;8977;50.902;4.314;2023-10-19T17:45:29;18.00;99.90
17715;DHT22;8977;50.902;4.314;2023-10-19T17:47:56;18.00;99.90
17715;DHT22;8977;50.902;4.314;2023-10-19T17:50:22;18.00;99.90
17715;DHT22;8977;50.902;4.314;2023-10-19T17:52:51;18.00;99.90
17715;DHT22;8977;50.902;4.314;2023-10-19T17:55:18;18.00;99.90
17715;DHT22;8977;50.902;4.314;2023-10-19T17:57:48;18.00;99.90
17715;DHT22;8977;50.902;4.314;2023-10-19T18:00:15;18.00;99.90
17715;DHT22;8977;50.902;4.314;2023-10-19T18:02:45;17.90;99.90
17715;DHT22;8977;50.902;4.314;2023-10-19T18:05:12;17.90;99.90
17715;DHT22;8977;50.902;4.314;2023-10-19T18:07:40;17.90;99.90
17715;DHT22;8977;50.902;4.314;2023-10-19T18:10:09;17.90;99.90
17715;DHT22;8977;50.902;4.314;2023-10-19T18:12:37;17.90;99.90
17715;DHT22;8977;50.902;4.314;2023-10-19T18:15:05;17.90;99.90
17715;DHT22;8977;50.902;4.314;2023-10-19T18:17:33;17.90;99.90
17715;DHT22;8977;50.902;4.314;2023-10-19T18:20:01;17.90;99.90
17715;DHT22;8977;50.902;4.314;2023-10-19T18:22:33;17.90;99.90
17715;DHT22;8977;50.902;4.314;2023-10-19T18:25:01;17.90;99.90
17715;DHT22;8977;50.902;4.314;2023-10-19T18:27:29;17.90;99.90
17715;DHT22;8977;50.902;4.314;2023-10-19T18:29:56;17.90;99.90
17715;DHT22;8977;50.902;4.314;2023-10-19T18:32:24;17.80;99.90
17715;DHT22;8977;50.902;4.314;2023-10-19T18:34:51;17.90;99.90
17715;DHT22;8977;50.902;4.314;2023-10-19T18:37:18;17.80;99.90
17715;DHT22;8977;50.902;4.314;2023-10-19T18:39:45;17.90;99.90
17715;DHT22;8977;50.902;4.314;2023-10-19T18:42:12;17.80;99.90
17715;DHT22;8977;50.902;4.314;2023-10-19T18:44:41;17.80;99.90
17715;DHT22;8977;50.902;4.314;2023-10-19T18:47:08;17.80;99.90
17715;DHT22;8977;50.902;4.314;2023-10-19T18:49:35;17.80;99.90
17715;DHT22;8977;50.902;4.314;2023-10-19T18:52:03;17.80;99.90
17715;DHT22;8977;50.902;4.314;2023-10-19T18:54:32;17.80;99.90
17715;DHT22;8977;50.902;4.314;2023-10-19T18:56:59;17.80;99.90
17715;DHT22;8977;50.902;4.314;2023-10-19T18:59:26;17.80;99.90
17715;DHT22;8977;50.902;4.314;2023-10-19T19:01:54;17.80;99.90
17715;DHT22;8977;50.902;4.314;2023-10-19T19:04:24;17.80;99.90
17715;DHT22;8977;50.902;4.314;2023-10-19T19:06:51;17.80;99.90
17715;DHT22;8977;50.902;4.314;2023-10-19T19:09:18;17.80;99.90
17715;DHT22;8977;50.902;4.314;2023-10-19T19:11:45;17.80;99.90
17715;DHT22;8977;50.902;4.314;2023-10-19T19:14:12;17.80;99.90
17715;DHT22;8977;50.902;4.314;2023-10-19T19:16:40;17.80;99.90
17715;DHT22;8977;50.902;4.314;2023-10-19T19:19:08;17.80;99.90
17715;DHT22;8977;50.902;4.314;2023-10-19T19:21:36;17.80;99.90
17715;DHT22;8977;50.902;4.314;2023-10-19T19:24:06;17.80;99.90
17715;DHT22;8977;50.902;4.314;2023-10-19T19:26:33;17.80;99.90
17715;DHT22;8977;50.902;4.314;2023-10-19T19:29:01;17.80;99.90
17715;DHT22;8977;50.902;4.314;2023-10-19T19:31:28;17.80;99.90
17715;DHT22;8977;50.902;4.314;2023-10-19T19:33:55;17.80;99.90
17715;DHT22;8977;50.902;4.314;2023-10-19T19:36:23;17.80;99.90
17715;DHT22;8977;50.902;4.314;2023-10-19T19:38:50;17.80;99.90
17715;DHT22;8977;50.902;4.314;2023-10-19T19:41:17;17.80;99.90
17715;DHT22;8977;50.902;4.314;2023-10-19T19:43:44;17.80;99.90
17715;DHT22;8977;50.902;4.314;2023-10-19T19:46:11;17.80;99.90
17715;DHT22;8977;50.902;4.314;2023-10-19T19:48:39;17.80;99.90
17715;DHT22;8977;50.902;4.314;2023-10-19T19:51:06;17.80;99.90
17715;DHT22;8977;50.902;4.314;2023-10-19T19:53:36;17.80;99.90
17715;DHT22;8977;50.902;4.314;2023-10-19T19:56:04;17.80;99.90
17715;DHT22;8977;50.902;4.314;2023-10-19T19:58:33;17.80;99.90
17715;DHT22;8977;50.902;4.314;2023-10-19T20:01:01;17.80;99.90
17715;DHT22;8977;50.902;4.314;2023-10-19T20:03:28;17.80;99.90
17715;DHT22;8977;50.902;4.314;2023-10-19T20:05:58;17.80;99.90
17715;DHT22;8977;50.902;4.314;2023-10-19T20:08:25;17.80;99.90
17715;DHT22;8977;50.902;4.314;2023-10-19T20:10:53;17.80;99.90
17715;DHT22;8977;50.902;4.314;2023-10-19T20:13:20;17.80;99.90
17715;DHT22;8977;50.902;4.314;2023-10-19T20:15:50;17.80;99.90
17715;DHT22;8977;50.902;4.314;2023-10-19T20:18:18;17.80;99.90
17715;DHT22;8977;50.902;4.314;2023-10-19T20:20:45;17.80;99.90
17715;DHT22;8977;50.902;4.314;2023-10-19T20:23:12;17.80;99.90
17715;DHT22;8977;50.902;4.314;2023-10-19T20:25:40;17.80;99.90
17715;DHT22;8977;50.902;4.314;2023-10-19T20:28:08;17.80;99.90
17715;DHT22;8977;50.902;4.314;2023-10-19T20:30:35;17.80;99.90
17715;DHT22;8977;50.902;4.314;2023-10-19T20:33:03;17.80;99.90
17715;DHT22;8977;50.902;4.314;2023-10-19T20:35:33;17.80;99.90
17715;DHT22;8977;50.902;4.314;2023-10-19T20:38:00;17.80;99.90
17715;DHT22;8977;50.902;4.314;2023-10-19T20:40:30;17.80;99.90
17715;DHT22;8977;50.902;4.314;2023-10-19T20:42:59;17.80;99.90
17715;DHT22;8977;50.902;4.314;2023-10-19T20:45:29;17.80;99.90
17715;DHT22;8977;50.902;4.314;2023-10-19T20:47:56;17.80;99.90
17715;DHT22;8977;50.902;4.314;2023-10-19T20:50:24;17.70;99.90
17715;DHT22;8977;50.902;4.314;2023-10-19T20:52:51;17.70;99.90
17715;DHT22;8977;50.902;4.314;2023-10-19T20:55:18;17.70;99.90
17715;DHT22;8977;50.902;4.314;2023-10-19T20:57:46;17.70;99.90
17715;DHT22;8977;50.902;4.314;2023-10-19T21:00:14;17.70;99.90
17715;DHT22;8977;50.902;4.314;2023-10-19T21:02:43;17.70;99.90
17715;DHT22;8977;50.902;4.314;2023-10-19T21:05:11;17.70;99.90
17715;DHT22;8977;50.902;4.314;2023-10-19T21:07:40;17.70;99.90
17715;DHT22;8977;50.902;4.314;2023-10-19T21:10:08;17.70;99.90
17715;DHT22;8977;50.902;4.314;2023-10-19T21:12:36;17.70;99.90
17715;DHT22;8977;50.902;4.314;2023-10-19T21:15:05;17.70;99.90
17715;DHT22;8977;50.902;4.314;2023-10-19T21:17:32;17.60;99.90
17715;DHT22;8977;50.902;4.314;2023-10-19T21:20:00;17.70;99.90
17715;DHT22;8977;50.902;4.314;2023-10-19T21:22:31;17.60;99.90
17715;DHT22;8977;50.902;4.314;2023-10-19T21:24:59;17.60;99.90
17715;DHT22;8977;50.902;4.314;2023-10-19T21:27:26;17.60;99.90
17715;DHT22;8977;50.902;4.314;2023-10-19T21:29:53;17.60;99.90
17715;DHT22;8977;50.902;4.314;2023-10-19T21:32:20;17.60;99.90
17715;DHT22;8977;50.902;4.314;2023-10-19T21:34:47;17.60;99.90
17715;DHT22;8977;50.902;4.314;2023-10-19T21:37:17;17.60;99.90
17715;DHT22;8977;50.902;4.314;2023-10-19T21:39:45;17.60;99.90
17715;DHT22;8977;50.902;4.314;2023-10-19T21:42:12;17.60;99.90
17715;DHT22;8977;50.902;4.314;2023-10-19T21:44:39;17.60;99.90
17715;DHT22;8977;50.902;4.314;2023-10-19T21:47:06;17.60;99.90
17715;DHT22;8977;50.902;4.314;2023-10-19T21:49:33;17.60;99.90
17715;DHT22;8977;50.902;4.314;2023-10-19T21:52:00;17.50;99.90
17715;DHT22;8977;50.902;4.314;2023-10-19T21:54:28;17.50;99.90
17715;DHT22;8977;50.902;4.314;2023-10-19T21:56:55;17.50;99.90
17715;DHT22;8977;50.902;4.314;2023-10-19T21:59:23;17.50;99.90
17715;DHT22;8977;50.902;4.314;2023-10-19T22:01:49;17.50;99.90
17715;DHT22;8977;50.902;4.314;2023-10-19T22:04:16;17.50;99.90
17715;DHT22;8977;50.902;4.314;2023-10-19T22:06:43;17.50;99.90
17715;DHT22;8977;50.902;4.314;2023-10-19T22:09:10;17.50;99.90
17715;DHT22;8977;50.902;4.314;2023-10-19T22:11:43;17.50;99.90
17715;DHT22;8977;50.902;4.314;2023-10-19T22:14:11;17.50;99.90
17715;DHT22;8977;50.902;4.314;2023-10-19T22:16:38;17.60;99.90
17715;DHT22;8977;50.902;4.314;2023-10-19T22:19:05;17.50;99.90
17715;DHT22;8977;50.902;4.314;2023-10-19T22:21:34;17.50;99.90
17715;DHT22;8977;50.902;4.314;2023-10-19T22:24:01;17.50;99.90
17715;DHT22;8977;50.902;4.314;2023-10-19T22:26:29;17.60;99.90
17715;DHT22;8977;50.902;4.314;2023-10-19T22:28:58;17.50;99.90
17715;DHT22;8977;50.902;4.314;2023-10-19T22:31:25;17.50;99.90
17715;DHT22;8977;50.902;4.314;2023-10-19T22:33:52;17.60;99.90
17715;DHT22;8977;50.902;4.314;2023-10-19T22:36:19;17.50;99.90
17715;DHT22;8977;50.902;4.314;2023-10-19T22:38:46;17.60;99.90
17715;DHT22;8977;50.902;4.314;2023-10-19T22:41:13;17.60;99.90
17715;DHT22;8977;50.902;4.314;2023-10-19T22:43:40;17.60;99.90
17715;DHT22;8977;50.902;4.314;2023-10-19T22:46:08;17.60;99.90
17715;DHT22;8977;50.902;4.314;2023-10-19T22:48:36;17.60;99.90
17715;DHT22;8977;50.902;4.314;2023-10-19T22:51:03;17.60;99.90
17715;DHT22;8977;50.902;4.314;2023-10-19T22:53:30;17.60;99.90
17715;DHT22;8977;50.902;4.314;2023-10-19T22:55:58;17.60;99.90
17715;DHT22;8977;50.902;4.314;2023-10-19T22:58:27;17.60;99.90
17715;DHT22;8977;50.902;4.314;2023-10-19T23:00:54;17.60;99.90
17715;DHT22;8977;50.902;4.314;2023-10-19T23:03:22;17.60;99.90
17715;DHT22;8977;50.902;4.314;2023-10-19T23:05:49;17.60;99.90
17715;DHT22;8977;50.902;4.314;2023-10-19T23:08:19;17.60;99.90
17715;DHT22;8977;50.902;4.314;2023-10-19T23:10:46;17.60;99.90
17715;DHT22;8977;50.902;4.314;2023-10-19T23:13:13;17.60;99.90
17715;DHT22;8977;50.902;4.314;2023-10-19T23:15:43;17.60;99.90
17715;DHT22;8977;50.902;4.314;2023-10-19T23:18:11;17.60;99.90
17715;DHT22;8977;50.902;4.314;2023-10-19T23:20:42;17.60;99.90
17715;DHT22;8977;50.902;4.314;2023-10-19T23:23:16;17.60;99.90
17715;DHT22;8977;50.902;4.314;2023-10-19T23:25:45;17.60;99.90
17715;DHT22;8977;50.902;4.314;2023-10-19T23:28:20;17.50;99.90
17715;DHT22;8977;50.902;4.314;2023-10-19T23:30:47;17.60;99.90
17715;DHT22;8977;50.902;4.314;2023-10-19T23:33:15;17.60;99.90
17715;DHT22;8977;50.902;4.314;2023-10-19T23:35:45;17.60;99.90
17715;DHT22;8977;50.902;4.314;2023-10-19T23:38:11;17.60;99.90
17715;DHT22;8977;50.902;4.314;2023-10-19T23:40:40;17.60;99.90
17715;DHT22;8977;50.902;4.314;2023-10-19T23:43:07;17.60;99.90
17715;DHT22;8977;50.902;4.314;2023-10-19T23:45:36;17.60;99.90
17715;DHT22;8977;50.902;4.314;2023-10-19T23:48:05;17.60;99.90
17715;DHT22;8977;50.902;4.314;2023-10-19T23:50:36;17.60;99.90
17715;DHT22;8977;50.902;4.314;2023-10-19T23:53:04;17.60;99.90
17715;DHT22;8977;50.902;4.314;2023-10-19T23:55:31;17.60;99.90
17715;DHT22;8977;50.902;4.314;2023-10-19T23:57:58;17.50;99.90
